Time;durP1;ratioP1;P1;durP2;ratioP2;P2;SDS_P1;SDS_P2;PMS_P1;PMS_P2;Temp;Humidity;BMP_temperature;BMP_pressure;BME280_temperature;BME280_humidity;BME280_pressure;Samples;Min_cycle;Max_cycle;Signal;HPM_P1;HPM_P2
2020/12/27 00:02:25;;;;;;;4.95;2.97;;;;;;;;;;5013402;28;20022;-74
2020/12/27 00:04:51;;;;;;;4.75;3.17;;;;;;;;;;5013602;28;20014;-74
2020/12/27 00:07:17;;;;;;;9.18;4.03;;;;;;;;;;5013321;28;20425;-74
2020/12/27 00:09:44;;;;;;;5.57;3.17;;;;;;;;;;5013320;28;20440;-74
2020/12/27 00:12:11;;;;;;;7.47;3.78;;;;;;;;;;5013219;28;20496;-74
2020/12/27 00:14:37;;;;;;;6.68;3.05;;;;;;;;;;5013315;28;20098;-74
2020/12/27 00:17:04;;;;;;;6.20;3.30;;;;;;;;;;5013202;28;20049;-74
2020/12/27 00:19:30;;;;;;;7.43;4.00;;;;;;;;;;5013209;28;20389;-74
2020/12/27 00:21:56;;;;;;;4.57;3.28;;;;;;;;;;5013136;28;20545;-74
2020/12/27 00:24:23;;;;;;;5.60;2.53;;;;;;;;;;5013430;28;20081;-74
2020/12/27 00:26:49;;;;;;;6.53;3.33;;;;;;;;;;5012916;28;20063;-74
2020/12/27 00:29:15;;;;;;;6.70;4.55;;;;;;;;;;5013033;28;20115;-74
2020/12/27 00:31:41;;;;;;;7.15;3.63;;;;;;;;;;4995387;28;20029;-74
2020/12/27 00:34:07;;;;;;;7.60;3.53;;;;;;;;;;5012911;28;20048;-74
2020/12/27 00:36:33;;;;;;;5.72;3.28;;;;;;;;;;5013115;28;20045;-75
2020/12/27 00:38:59;;;;;;;6.28;3.50;;;;;;;;;;5012834;28;20014;-74
2020/12/27 00:41:26;;;;;;;7.13;4.13;;;;;;;;;;5012935;28;20022;-75
2020/12/27 00:43:53;;;;;;;6.45;3.33;;;;;;;;;;5012960;28;20359;-74
2020/12/27 00:46:20;;;;;;;5.28;3.15;;;;;;;;;;5012834;28;20482;-74
2020/12/27 00:48:46;;;;;;;7.85;3.80;;;;;;;;;;5012601;28;20490;-74
2020/12/27 00:51:12;;;;;;;10.80;3.55;;;;;;;;;;5012744;28;20030;-74
2020/12/27 00:53:38;;;;;;;7.38;3.53;;;;;;;;;;5012811;28;20025;-74
2020/12/27 00:56:04;;;;;;;10.07;4.32;;;;;;;;;;5012643;28;20029;-74
2020/12/27 00:58:31;;;;;;;7.72;3.92;;;;;;;;;;5012699;28;20053;-74
2020/12/27 01:00:58;;;;;;;7.85;3.70;;;;;;;;;;5012672;28;20421;-74
2020/12/27 01:03:24;;;;;;;9.13;4.00;;;;;;;;;;5013103;28;20109;-74
2020/12/27 01:05:50;;;;;;;7.18;3.85;;;;;;;;;;5013055;28;20097;-74
2020/12/27 01:08:17;;;;;;;7.28;3.40;;;;;;;;;;5012620;28;20030;-74
2020/12/27 01:10:43;;;;;;;7.00;4.28;;;;;;;;;;5012472;28;20014;-74
2020/12/27 01:13:09;;;;;;;7.38;4.03;;;;;;;;;;5012585;28;20409;-74
2020/12/27 01:15:38;;;;;;;10.93;4.50;;;;;;;;;;5012895;28;20072;-74
2020/12/27 01:18:05;;;;;;;7.82;3.40;;;;;;;;;;4994940;28;20041;-74
2020/12/27 01:20:31;;;;;;;7.70;4.28;;;;;;;;;;5012574;28;20033;-74
2020/12/27 01:22:57;;;;;;;7.68;4.20;;;;;;;;;;5012468;28;20022;-74
2020/12/27 01:25:23;;;;;;;12.40;4.57;;;;;;;;;;5012702;28;20034;-74
2020/12/27 01:27:49;;;;;;;7.88;4.57;;;;;;;;;;5012321;28;20038;-74
2020/12/27 01:30:15;;;;;;;8.02;4.72;;;;;;;;;;5012317;28;20022;-74
2020/12/27 01:32:41;;;;;;;9.75;3.95;;;;;;;;;;5012163;28;20037;-74
2020/12/27 01:35:07;;;;;;;5.63;3.85;;;;;;;;;;5012190;28;20022;-73
2020/12/27 01:37:33;;;;;;;8.13;3.50;;;;;;;;;;5009354;28;20022;-74
2020/12/27 01:39:59;;;;;;;6.35;3.50;;;;;;;;;;5011207;28;20038;-74
2020/12/27 01:42:25;;;;;;;6.03;3.83;;;;;;;;;;5012146;28;20018;-74
2020/12/27 01:44:51;;;;;;;6.53;3.95;;;;;;;;;;5012305;28;20022;-74
2020/12/27 01:47:20;;;;;;;9.68;4.72;;;;;;;;;;5012131;28;20022;-74
2020/12/27 01:49:47;;;;;;;9.68;4.10;;;;;;;;;;5012224;28;20037;-74
2020/12/27 01:52:13;;;;;;;6.43;3.65;;;;;;;;;;5015692;28;20405;-74
2020/12/27 01:54:39;;;;;;;8.27;4.88;;;;;;;;;;5015629;28;20030;-74
2020/12/27 01:57:12;;;;;;;15.07;6.65;;;;;;;;;;5015711;28;20108;-75
2020/12/27 01:59:38;;;;;;;11.10;5.40;;;;;;;;;;5015403;28;20046;-74
2020/12/27 02:02:04;;;;;;;8.20;4.78;;;;;;;;;;5015504;28;20029;-74
2020/12/27 02:04:31;;;;;;;11.63;3.63;;;;;;;;;;5015324;28;20532;-74
2020/12/27 02:06:58;;;;;;;16.80;4.65;;;;;;;;;;5015323;28;20125;-74
2020/12/27 02:09:24;;;;;;;8.27;5.30;;;;;;;;;;5015438;28;20069;-74
2020/12/27 02:12:09;;;;;;;8.27;5.03;;;;;;;;;;4997943;28;20033;-74
2020/12/27 02:14:36;;;;;;;8.50;5.30;;;;;;;;;;5015444;28;20378;-74
2020/12/27 02:17:03;;;;;;;10.63;4.82;;;;;;;;;;5015222;28;20021;-74
2020/12/27 02:19:29;;;;;;;9.20;4.28;;;;;;;;;;5015151;28;20026;-74
2020/12/27 02:21:55;;;;;;;7.45;4.05;;;;;;;;;;5015161;28;20026;-74
2020/12/27 02:24:21;;;;;;;9.13;4.45;;;;;;;;;;5015314;28;20025;-74
2020/12/27 02:27:00;;;;;;;6.38;3.95;;;;;;;;;;5015003;28;20104;-74
2020/12/27 02:29:27;;;;;;;8.02;3.72;;;;;;;;;;4997333;28;20069;-74
2020/12/27 02:31:54;;;;;;;9.60;5.00;;;;;;;;;;5015152;28;20022;-74
2020/12/27 02:34:20;;;;;;;10.55;4.93;;;;;;;;;;4997541;28;20125;-74
2020/12/27 02:36:47;;;;;;;10.13;5.10;;;;;;;;;;5014756;28;20022;-74
2020/12/27 02:39:14;;;;;;;8.40;4.93;;;;;;;;;;5014804;28;20025;-75
2020/12/27 02:41:40;;;;;;;8.90;3.92;;;;;;;;;;4997283;28;20059;-74
2020/12/27 02:44:07;;;;;;;6.40;4.57;;;;;;;;;;5014712;28;20022;-74
2020/12/27 02:46:33;;;;;;;9.60;4.13;;;;;;;;;;5014635;28;20034;-75
2020/12/27 02:48:59;;;;;;;10.52;4.50;;;;;;;;;;5014500;28;20041;-74
2020/12/27 02:51:26;;;;;;;7.97;4.72;;;;;;;;;;5014576;28;20022;-74
2020/12/27 02:53:53;;;;;;;8.80;4.10;;;;;;;;;;5014716;28;20022;-74
2020/12/27 02:56:19;;;;;;;8.10;4.00;;;;;;;;;;5014375;28;20065;-74
2020/12/27 02:58:46;;;;;;;10.63;4.60;;;;;;;;;;5014245;28;20042;-74
2020/12/27 03:01:12;;;;;;;5.78;3.13;;;;;;;;;;5014374;28;20088;-74
2020/12/27 03:03:39;;;;;;;6.45;3.55;;;;;;;;;;5014300;28;20037;-74
2020/12/27 03:06:05;;;;;;;9.25;4.10;;;;;;;;;;5014246;28;20028;-75
2020/12/27 03:08:31;;;;;;;7.30;4.78;;;;;;;;;;5013964;28;20029;-74
2020/12/27 03:10:57;;;;;;;8.45;4.05;;;;;;;;;;5014106;28;20034;-75
2020/12/27 03:13:23;;;;;;;7.18;4.22;;;;;;;;;;5014310;28;20026;-74
2020/12/27 03:15:54;;;;;;;6.15;3.50;;;;;;;;;;5014566;28;20374;-74
2020/12/27 03:18:20;;;;;;;8.90;4.47;;;;;;;;;;5014270;28;20022;-74
2020/12/27 03:20:46;;;;;;;12.10;5.15;;;;;;;;;;5014068;28;20029;-74
2020/12/27 03:23:12;;;;;;;7.13;4.47;;;;;;;;;;5013957;28;20029;-74
2020/12/27 03:25:38;;;;;;;9.73;4.97;;;;;;;;;;5013972;28;20029;-74
2020/12/27 03:28:04;;;;;;;7.82;4.90;;;;;;;;;;5013859;28;20081;-75
2020/12/27 03:30:30;;;;;;;7.72;4.25;;;;;;;;;;5013994;28;20033;-75
2020/12/27 03:32:57;;;;;;;9.73;4.15;;;;;;;;;;5013757;28;20160;-74
2020/12/27 03:35:23;;;;;;;8.05;4.63;;;;;;;;;;5013926;28;20053;-74
2020/12/27 03:37:49;;;;;;;6.00;2.78;;;;;;;;;;5013847;28;20036;-75
2020/12/27 03:40:15;;;;;;;8.63;4.40;;;;;;;;;;5013688;28;20034;-75
2020/12/27 03:42:41;;;;;;;6.88;4.10;;;;;;;;;;4996321;28;20378;-74
2020/12/27 03:45:07;;;;;;;9.07;4.30;;;;;;;;;;5013522;28;20026;-74
2020/12/27 03:47:33;;;;;;;8.15;3.85;;;;;;;;;;5013425;28;20061;-75
2020/12/27 03:49:59;;;;;;;5.63;3.40;;;;;;;;;;5013446;28;20037;-74
2020/12/27 03:52:25;;;;;;;6.50;3.75;;;;;;;;;;5013493;28;20018;-75
2020/12/27 03:54:51;;;;;;;10.30;4.22;;;;;;;;;;5013569;28;20097;-74
2020/12/27 03:57:17;;;;;;;7.78;4.00;;;;;;;;;;5013405;28;20049;-75
2020/12/27 03:59:43;;;;;;;9.60;3.13;;;;;;;;;;5013176;28;20046;-75
2020/12/27 04:02:09;;;;;;;7.80;3.60;;;;;;;;;;5013353;28;20417;-74
2020/12/27 04:04:35;;;;;;;6.63;3.33;;;;;;;;;;5013179;28;20037;-75
2020/12/27 04:07:01;;;;;;;7.50;3.58;;;;;;;;;;5013232;28;20018;-74
2020/12/27 04:09:27;;;;;;;6.93;3.80;;;;;;;;;;5012943;28;20034;-74
2020/12/27 04:11:53;;;;;;;6.57;3.95;;;;;;;;;;5013225;28;20080;-74
2020/12/27 04:14:19;;;;;;;8.35;3.40;;;;;;;;;;5012822;28;20034;-75
2020/12/27 04:16:45;;;;;;;6.63;3.30;;;;;;;;;;5013139;28;20018;-75
2020/12/27 04:19:11;;;;;;;8.13;3.60;;;;;;;;;;5013033;28;20018;-74
2020/12/27 04:21:37;;;;;;;6.63;3.67;;;;;;;;;;5013022;28;20068;-74
2020/12/27 04:24:07;;;;;;;7.00;3.20;;;;;;;;;;5012751;28;20041;-74
2020/12/27 04:26:33;;;;;;;4.00;2.95;;;;;;;;;;5013296;28;20485;-75
2020/12/27 04:28:59;;;;;;;5.28;2.97;;;;;;;;;;4995255;28;20033;-75
2020/12/27 04:31:25;;;;;;;5.72;3.35;;;;;;;;;;5012869;28;20014;-74
2020/12/27 04:33:55;;;;;;;6.95;3.20;;;;;;;;;;5012779;28;20025;-74
2020/12/27 04:36:21;;;;;;;6.95;3.42;;;;;;;;;;5012914;28;20493;-74
2020/12/27 04:38:47;;;;;;;5.65;3.33;;;;;;;;;;5012761;28;20037;-76
2020/12/27 04:41:14;;;;;;;9.80;4.00;;;;;;;;;;5012624;28;20504;-74
2020/12/27 04:43:41;;;;;;;6.47;3.25;;;;;;;;;;5012730;28;20401;-74
2020/12/27 04:46:07;;;;;;;5.25;3.05;;;;;;;;;;4994957;28;20042;-75
2020/12/27 04:48:34;;;;;;;7.60;3.70;;;;;;;;;;5012526;28;20077;-75
2020/12/27 04:51:04;;;;;;;4.78;3.03;;;;;;;;;;5012507;28;20022;-75
2020/12/27 04:53:30;;;;;;;4.65;2.83;;;;;;;;;;4994851;28;20087;-75
2020/12/27 04:55:57;;;;;;;4.22;2.85;;;;;;;;;;5012499;28;20061;-74
2020/12/27 04:58:23;;;;;;;5.40;2.90;;;;;;;;;;5012549;28;20030;-74
2020/12/27 05:00:49;;;;;;;4.80;2.60;;;;;;;;;;5012701;28;20101;-74
2020/12/27 05:03:16;;;;;;;4.97;2.88;;;;;;;;;;5012284;28;20034;-74
2020/12/27 05:05:42;;;;;;;3.80;2.05;;;;;;;;;;5012502;28;20026;-74
2020/12/27 05:08:08;;;;;;;6.78;3.30;;;;;;;;;;4994857;28;20034;-74
2020/12/27 05:10:41;;;;;;;5.03;3.08;;;;;;;;;;4994953;28;20025;-74
2020/12/27 05:13:13;;;;;;;5.53;2.50;;;;;;;;;;4994702;28;20022;-74
2020/12/27 05:15:40;;;;;;;4.55;3.13;;;;;;;;;;5012450;28;20072;-74
2020/12/27 05:18:06;;;;;;;4.10;2.72;;;;;;;;;;5012461;28;20537;-75
2020/12/27 05:20:33;;;;;;;5.40;3.05;;;;;;;;;;5012400;28;20018;-74
2020/12/27 05:23:04;;;;;;;3.78;2.65;;;;;;;;;;4994309;28;20026;-75
2020/12/27 05:25:31;;;;;;;4.93;2.50;;;;;;;;;;5013881;28;20026;-74
2020/12/27 05:28:10;;;;;;;4.93;2.60;;;;;;;;;;5016162;28;20025;-74
2020/12/27 05:30:37;;;;;;;7.10;3.00;;;;;;;;;;5016197;28;20022;-75
2020/12/27 05:33:13;;;;;;;5.80;2.17;;;;;;;;;;5016094;28;20424;-75
2020/12/27 05:35:39;;;;;;;6.05;2.58;;;;;;;;;;5016130;28;20022;-75
2020/12/27 05:38:06;;;;;;;4.72;2.38;;;;;;;;;;4998449;28;20033;-74
2020/12/27 05:40:36;;;;;;;5.43;2.42;;;;;;;;;;4998416;28;20026;-74
2020/12/27 05:43:06;;;;;;;4.00;2.38;;;;;;;;;;5015888;28;20022;-76
2020/12/27 05:45:32;;;;;;;5.30;3.55;;;;;;;;;;5015794;28;20099;-75
2020/12/27 05:48:00;;;;;;;3.45;1.95;;;;;;;;;;5016129;28;20038;-75
2020/12/27 05:50:27;;;;;;;4.25;2.63;;;;;;;;;;5015839;28;20018;-74
2020/12/27 05:52:59;;;;;;;4.55;2.60;;;;;;;;;;5015969;28;20022;-75
2020/12/27 05:55:25;;;;;;;2.97;1.90;;;;;;;;;;5015913;28;20045;-74
2020/12/27 05:57:52;;;;;;;3.65;2.10;;;;;;;;;;5015777;28;20018;-74
2020/12/27 06:00:19;;;;;;;6.30;2.50;;;;;;;;;;5015389;28;20081;-75
2020/12/27 06:02:45;;;;;;;4.72;2.10;;;;;;;;;;5015878;28;20033;-75
2020/12/27 06:05:26;;;;;;;3.17;2.10;;;;;;;;;;5015470;28;20022;-74
2020/12/27 06:07:58;;;;;;;5.20;2.00;;;;;;;;;;5015527;28;20108;-75
2020/12/27 06:10:29;;;;;;;4.60;2.35;;;;;;;;;;5015285;28;20062;-74
2020/12/27 06:12:57;;;;;;;4.88;1.70;;;;;;;;;;5015376;28;20033;-75
2020/12/27 06:15:31;;;;;;;6.32;2.30;;;;;;;;;;5015224;28;20026;-74
2020/12/27 06:18:16;;;;;;;3.35;2.30;;;;;;;;;;5015324;28;20390;-75
2020/12/27 06:20:43;;;;;;;3.83;2.10;;;;;;;;;;5015378;28;20030;-75
2020/12/27 06:23:10;;;;;;;3.88;2.03;;;;;;;;;;5015178;28;20034;-76
2020/12/27 06:25:37;;;;;;;3.75;2.13;;;;;;;;;;5015292;28;20022;-74
2020/12/27 06:28:04;;;;;;;4.25;2.05;;;;;;;;;;5015052;28;20033;-76
2020/12/27 06:30:31;;;;;;;4.07;2.13;;;;;;;;;;5014975;28;20549;-76
2020/12/27 06:33:12;;;;;;;3.65;2.25;;;;;;;;;;5014998;28;20030;-74
2020/12/27 06:35:38;;;;;;;3.13;1.75;;;;;;;;;;5014431;28;20022;-76
2020/12/27 06:38:18;;;;;;;3.42;1.85;;;;;;;;;;5014953;28;20018;-73
2020/12/27 06:40:45;;;;;;;4.13;2.08;;;;;;;;;;5014851;28;20033;-74
2020/12/27 06:43:18;;;;;;;4.78;2.03;;;;;;;;;;5014764;28;20021;-74
2020/12/27 06:45:44;;;;;;;3.25;1.98;;;;;;;;;;5014573;28;20386;-75
2020/12/27 06:48:11;;;;;;;4.32;1.60;;;;;;;;;;5014694;28;20034;-74
2020/12/27 06:50:44;;;;;;;5.13;2.55;;;;;;;;;;5014649;28;20068;-73
2020/12/27 06:53:11;;;;;;;4.30;2.30;;;;;;;;;;5014569;28;20075;-74
2020/12/27 06:55:41;;;;;;;5.28;2.40;;;;;;;;;;5014660;28;20026;-76
2020/12/27 06:58:23;;;;;;;4.07;2.65;;;;;;;;;;5014531;28;20026;-76
2020/12/27 07:00:50;;;;;;;3.67;2.13;;;;;;;;;;5014583;28;20025;-74
2020/12/27 07:03:17;;;;;;;2.67;1.88;;;;;;;;;;4996877;28;20034;-74
2020/12/27 07:05:44;;;;;;;3.47;1.95;;;;;;;;;;5014529;28;20101;-74
2020/12/27 07:08:11;;;;;;;3.78;1.88;;;;;;;;;;4996641;28;20052;-74
2020/12/27 07:10:41;;;;;;;3.08;2.00;;;;;;;;;;5014365;28;20427;-74
2020/12/27 07:13:09;;;;;;;3.40;1.98;;;;;;;;;;5014176;28;20029;-75
2020/12/27 07:15:35;;;;;;;4.22;2.17;;;;;;;;;;4996685;28;20037;-74
2020/12/27 07:18:08;;;;;;;6.57;2.20;;;;;;;;;;5014083;28;20033;-76
2020/12/27 07:20:35;;;;;;;3.83;1.93;;;;;;;;;;5014183;28;20096;-75
2020/12/27 07:23:01;;;;;;;6.30;1.52;;;;;;;;;;5014006;28;20260;-76
2020/12/27 07:25:29;;;;;;;4.18;2.30;;;;;;;;;;5013888;28;20072;-74
2020/12/27 07:27:56;;;;;;;2.80;1.90;;;;;;;;;;5013858;28;20033;-74
2020/12/27 07:30:26;;;;;;;4.38;1.88;;;;;;;;;;5013992;28;20022;-73
2020/12/27 07:32:52;;;;;;;3.58;2.30;;;;;;;;;;5013944;28;20069;-76
2020/12/27 07:35:22;;;;;;;3.35;2.50;;;;;;;;;;5013834;28;20379;-73
2020/12/27 07:37:59;;;;;;;5.20;2.13;;;;;;;;;;5013601;28;20029;-73
2020/12/27 07:40:30;;;;;;;2.40;1.63;;;;;;;;;;5013551;28;20065;-75
2020/12/27 07:42:56;;;;;;;3.05;2.17;;;;;;;;;;5012050;28;20030;-75
2020/12/27 07:45:22;;;;;;;3.45;2.25;;;;;;;;;;4987789;28;20033;-74
2020/12/27 07:47:48;;;;;;;6.57;3.42;;;;;;;;;;5008959;28;20040;-74
2020/12/27 07:50:15;;;;;;;5.20;3.17;;;;;;;;;;5010956;28;20029;-74
2020/12/27 07:52:42;;;;;;;6.10;2.63;;;;;;;;;;5010803;28;20486;-73
2020/12/27 07:55:08;;;;;;;6.80;3.83;;;;;;;;;;5010663;28;20041;-75
2020/12/27 07:57:34;;;;;;;5.35;3.60;;;;;;;;;;5011011;28;20068;-74
2020/12/27 08:00:05;;;;;;;4.80;2.85;;;;;;;;;;5010942;28;20056;-74
2020/12/27 08:02:31;;;;;;;6.40;3.80;;;;;;;;;;5010649;28;20022;-74
2020/12/27 08:04:58;;;;;;;7.30;3.85;;;;;;;;;;4993272;28;20034;-74
2020/12/27 08:07:25;;;;;;;4.95;3.25;;;;;;;;;;4992584;28;20095;-74
2020/12/27 08:09:51;;;;;;;6.43;3.60;;;;;;;;;;5010669;28;20478;-75
2020/12/27 08:12:17;;;;;;;5.20;3.10;;;;;;;;;;5010499;28;20025;-75
2020/12/27 08:14:43;;;;;;;4.70;2.90;;;;;;;;;;5010491;28;20025;-75
2020/12/27 08:17:16;;;;;;;7.93;3.17;;;;;;;;;;4992806;28;20026;-74
2020/12/27 08:19:42;;;;;;;7.10;3.85;;;;;;;;;;5010187;28;20030;-73
2020/12/27 08:22:08;;;;;;;6.57;3.58;;;;;;;;;;5010682;28;20381;-75
2020/12/27 08:24:35;;;;;;;7.75;4.00;;;;;;;;;;5010708;28;20026;-76
2020/12/27 08:27:01;;;;;;;6.70;4.28;;;;;;;;;;5010456;28;20026;-75
2020/12/27 08:29:27;;;;;;;6.15;3.35;;;;;;;;;;5010110;28;20456;-75
2020/12/27 08:31:54;;;;;;;3.53;2.25;;;;;;;;;;5010253;28;20089;-72
2020/12/27 08:34:20;;;;;;;8.90;3.88;;;;;;;;;;5010451;28;20029;-75
2020/12/27 08:36:48;;;;;;;6.47;2.80;;;;;;;;;;5010301;28;20022;-74
2020/12/27 08:39:17;;;;;;;5.20;3.67;;;;;;;;;;5009913;28;20041;-75
2020/12/27 08:41:46;;;;;;;6.15;3.20;;;;;;;;;;5010106;28;20044;-74
2020/12/27 08:44:36;;;;;;;6.10;3.03;;;;;;;;;;4998632;28;20022;-73
2020/12/27 08:47:05;;;;;;;5.43;3.38;;;;;;;;;;4946383;28;20390;-76
2020/12/27 08:49:34;;;;;;;4.25;3.72;;;;;;;;;;4990716;28;20042;-74
2020/12/27 08:52:21;;;;;;;3.85;2.30;;;;;;;;;;4990726;28;20501;-75
2020/12/27 08:54:53;;;;;;;6.25;3.42;;;;;;;;;;4990238;28;20038;-73
2020/12/27 08:57:19;;;;;;;4.85;3.30;;;;;;;;;;4990583;28;20037;-74
2020/12/27 09:00:15;;;;;;;5.63;3.25;;;;;;;;;;4992226;28;20050;-75
2020/12/27 09:02:41;;;;;;;5.07;3.35;;;;;;;;;;4982452;28;20042;-75
2020/12/27 09:05:10;;;;;;;4.40;2.92;;;;;;;;;;4993580;28;20062;-74
2020/12/27 09:07:40;;;;;;;6.35;3.15;;;;;;;;;;4975440;28;20046;-74
2020/12/27 09:10:11;;;;;;;4.82;3.30;;;;;;;;;;4994063;28;20053;-75
2020/12/27 09:12:39;;;;;;;4.07;2.92;;;;;;;;;;4994354;28;20050;-74
2020/12/27 09:15:21;;;;;;;4.03;2.78;;;;;;;;;;4994439;28;20026;-74
2020/12/27 09:17:53;;;;;;;4.13;2.28;;;;;;;;;;4994418;28;20035;-74
2020/12/27 09:20:19;;;;;;;5.95;2.65;;;;;;;;;;4993997;28;20030;-73
2020/12/27 09:22:45;;;;;;;5.93;2.80;;;;;;;;;;4994128;28;20077;-74
2020/12/27 09:25:11;;;;;;;3.88;2.40;;;;;;;;;;4994158;28;20449;-74
2020/12/27 09:27:37;;;;;;;5.40;2.90;;;;;;;;;;4994310;28;20029;-73
2020/12/27 09:30:03;;;;;;;6.25;2.92;;;;;;;;;;4994031;28;20030;-74
2020/12/27 09:32:36;;;;;;;4.65;2.90;;;;;;;;;;4993779;28;20041;-74
2020/12/27 09:35:02;;;;;;;5.63;2.83;;;;;;;;;;4976595;28;20031;-74
2020/12/27 09:37:34;;;;;;;6.13;2.90;;;;;;;;;;4994085;28;20374;-74
2020/12/27 09:40:01;;;;;;;46.85;19.15;;;;;;;;;;4993887;28;20046;-73
2020/12/27 09:42:29;;;;;;;6.03;2.80;;;;;;;;;;4994236;28;20026;-74
2020/12/27 09:44:56;;;;;;;6.35;4.90;;;;;;;;;;5010123;28;20477;-73
2020/12/27 09:47:29;;;;;;;5.20;3.00;;;;;;;;;;5013659;28;20112;-74
2020/12/27 09:50:06;;;;;;;6.43;2.90;;;;;;;;;;5013447;28;20428;-73
2020/12/27 09:52:32;;;;;;;4.85;2.95;;;;;;;;;;5012902;28;20261;-74
2020/12/27 09:54:58;;;;;;;4.40;2.90;;;;;;;;;;5012964;28;20109;-73
2020/12/27 09:57:27;;;;;;;3.60;2.70;;;;;;;;;;5013176;28;20064;-74
2020/12/27 09:59:53;;;;;;;4.65;2.28;;;;;;;;;;5013188;28;20472;-73
2020/12/27 10:02:24;;;;;;;13.98;7.13;;;;;;;;;;4995844;28;20054;-74
2020/12/27 10:04:50;;;;;;;3.28;2.17;;;;;;;;;;4995481;28;20495;-73
2020/12/27 10:07:16;;;;;;;5.10;2.85;;;;;;;;;;4994831;28;20030;-74
2020/12/27 10:09:42;;;;;;;21.70;11.70;;;;;;;;;;5013049;28;20037;-73
2020/12/27 10:12:08;;;;;;;6.05;3.92;;;;;;;;;;5012268;28;20033;-74
2020/12/27 10:14:35;;;;;;;4.00;2.47;;;;;;;;;;5012891;28;20037;-73
2020/12/27 10:17:02;;;;;;;5.63;2.85;;;;;;;;;;5012927;28;20022;-73
2020/12/27 10:19:28;;;;;;;5.97;2.65;;;;;;;;;;4994922;28;20025;-74
2020/12/27 10:21:54;;;;;;;4.25;2.63;;;;;;;;;;5012841;28;20052;-73
2020/12/27 10:24:23;;;;;;;5.75;3.60;;;;;;;;;;5013394;28;20348;-74
2020/12/27 10:26:49;;;;;;;8.75;3.60;;;;;;;;;;5012663;28;20364;-75
2020/12/27 10:29:16;;;;;;;4.95;3.03;;;;;;;;;;5012632;28;20037;-73
2020/12/27 10:31:42;;;;;;;8.20;4.18;;;;;;;;;;5012484;28;20037;-74
2020/12/27 10:34:08;;;;;;;4.35;2.67;;;;;;;;;;5012829;28;20033;-73
2020/12/27 10:36:34;;;;;;;4.50;2.85;;;;;;;;;;5011984;28;20419;-74
2020/12/27 10:39:00;;;;;;;11.05;5.82;;;;;;;;;;5012502;28;20033;-75
2020/12/27 10:41:26;;;;;;;6.55;4.03;;;;;;;;;;4994922;28;20041;-73
2020/12/27 10:43:52;;;;;;;14.75;7.10;;;;;;;;;;5003687;28;20116;-75
2020/12/27 10:46:18;;;;;;;32.10;15.98;;;;;;;;;;4992196;28;20035;-74
2020/12/27 10:48:45;;;;;;;6.95;3.95;;;;;;;;;;4988967;28;20046;-74
2020/12/27 10:51:11;;;;;;;4.40;2.80;;;;;;;;;;4993533;28;20022;-74
2020/12/27 10:53:37;;;;;;;8.52;3.10;;;;;;;;;;5012212;28;20029;-74
2020/12/27 10:56:03;;;;;;;3.40;2.70;;;;;;;;;;5011382;28;20030;-73
2020/12/27 10:58:30;;;;;;;6.43;3.53;;;;;;;;;;5011841;28;20683;-74
2020/12/27 11:00:56;;;;;;;2.65;1.83;;;;;;;;;;5011704;28;20030;-74
2020/12/27 11:03:22;;;;;;;6.80;4.40;;;;;;;;;;5011714;28;20049;-73
2020/12/27 11:05:48;;;;;;;5.45;3.60;;;;;;;;;;5011693;28;20393;-75
2020/12/27 11:08:14;;;;;;;5.05;3.17;;;;;;;;;;5011351;28;20375;-74
2020/12/27 11:10:42;;;;;;;7.20;3.13;;;;;;;;;;5011844;28;20037;-74
2020/12/27 11:13:08;;;;;;;6.55;2.33;;;;;;;;;;5012453;28;20026;-74
2020/12/27 11:15:35;;;;;;;5.68;3.58;;;;;;;;;;5012029;28;20026;-74
2020/12/27 11:18:01;;;;;;;5.38;3.30;;;;;;;;;;5011330;28;20030;-74
2020/12/27 11:20:30;;;;;;;8.25;5.07;;;;;;;;;;5010068;28;20041;-74
2020/12/27 11:22:57;;;;;;;5.25;2.88;;;;;;;;;;5009186;28;20068;-74
2020/12/27 11:25:23;;;;;;;8.57;4.22;;;;;;;;;;5011440;28;20405;-74
2020/12/27 11:27:50;;;;;;;6.57;3.42;;;;;;;;;;5011397;28;20037;-73
2020/12/27 11:30:16;;;;;;;3.35;2.58;;;;;;;;;;5011371;28;20038;-74
2020/12/27 11:32:42;;;;;;;7.20;2.53;;;;;;;;;;5011052;28;20022;-75
2020/12/27 11:35:08;;;;;;;8.80;4.70;;;;;;;;;;5011571;28;20104;-74
2020/12/27 11:37:34;;;;;;;4.95;2.50;;;;;;;;;;5011758;28;20523;-74
2020/12/27 11:40:00;;;;;;;4.97;2.17;;;;;;;;;;5012159;28;20371;-74
2020/12/27 11:42:27;;;;;;;2.97;2.05;;;;;;;;;;5011256;28;20462;-73
2020/12/27 11:44:53;;;;;;;3.97;2.00;;;;;;;;;;5009501;28;20678;-74
2020/12/27 11:47:19;;;;;;;2.05;1.55;;;;;;;;;;5011363;28;20766;-75
2020/12/27 11:49:45;;;;;;;4.03;2.72;;;;;;;;;;5011008;28;20061;-74
2020/12/27 11:52:11;;;;;;;4.40;2.35;;;;;;;;;;5010903;28;20026;-75
2020/12/27 11:54:38;;;;;;;3.47;2.15;;;;;;;;;;5010679;28;20038;-75
2020/12/27 11:57:04;;;;;;;4.25;1.98;;;;;;;;;;5010601;28;20041;-74
2020/12/27 11:59:30;;;;;;;3.28;2.42;;;;;;;;;;4993208;28;20054;-75
2020/12/27 12:01:56;;;;;;;5.53;2.08;;;;;;;;;;5010796;28;20034;-74
2020/12/27 12:04:22;;;;;;;3.78;2.28;;;;;;;;;;5011058;28;20022;-74
2020/12/27 12:06:48;;;;;;;7.32;2.53;;;;;;;;;;5010745;28;20741;-75
2020/12/27 12:09:14;;;;;;;9.63;4.70;;;;;;;;;;5009735;28;20045;-74
2020/12/27 12:11:41;;;;;;;3.95;2.30;;;;;;;;;;4992931;28;20049;-74
2020/12/27 12:14:08;;;;;;;2.88;1.98;;;;;;;;;;5010803;28;20030;-73
2020/12/27 12:16:34;;;;;;;5.15;2.88;;;;;;;;;;4992944;28;20477;-73
2020/12/27 12:19:00;;;;;;;3.15;1.90;;;;;;;;;;5010353;28;20042;-74
2020/12/27 12:21:27;;;;;;;2.38;1.92;;;;;;;;;;4993081;28;20022;-74
2020/12/27 12:23:53;;;;;;;5.28;2.42;;;;;;;;;;5010679;28;20026;-73
2020/12/27 12:26:23;;;;;;;4.18;2.80;;;;;;;;;;5010801;28;20030;-74
2020/12/27 12:28:49;;;;;;;3.30;2.03;;;;;;;;;;5010913;28;20033;-74
2020/12/27 12:31:15;;;;;;;4.57;1.75;;;;;;;;;;5010252;28;20022;-73
2020/12/27 12:33:41;;;;;;;6.63;2.58;;;;;;;;;;5010177;28;20026;-74
2020/12/27 12:36:07;;;;;;;5.55;2.22;;;;;;;;;;5007497;28;20572;-74
2020/12/27 12:38:33;;;;;;;3.10;1.95;;;;;;;;;;5000465;28;20081;-73
2020/12/27 12:41:00;;;;;;;2.92;2.03;;;;;;;;;;4999175;28;20050;-73
2020/12/27 12:43:30;;;;;;;3.75;2.17;;;;;;;;;;4997999;28;20026;-73
2020/12/27 12:45:57;;;;;;;3.40;2.20;;;;;;;;;;4983807;28;20030;-74
2020/12/27 12:48:23;;;;;;;2.20;1.55;;;;;;;;;;4999372;28;20104;-73
2020/12/27 12:50:49;;;;;;;4.95;2.30;;;;;;;;;;5000648;28;20386;-73
2020/12/27 12:53:15;;;;;;;3.05;2.17;;;;;;;;;;4998559;28;20490;-74
2020/12/27 12:55:41;;;;;;;4.45;3.00;;;;;;;;;;4999267;28;20018;-74
2020/12/27 12:58:07;;;;;;;4.30;2.78;;;;;;;;;;5000012;28;20031;-73
2020/12/27 13:00:33;;;;;;;3.00;1.92;;;;;;;;;;4998082;28;20042;-74
2020/12/27 13:02:59;;;;;;;6.05;2.85;;;;;;;;;;4999643;28;20072;-74
2020/12/27 13:05:25;;;;;;;3.83;2.20;;;;;;;;;;4999787;28;20023;-73
2020/12/27 13:07:51;;;;;;;2.70;2.15;;;;;;;;;;4997950;28;20557;-74
2020/12/27 13:10:18;;;;;;;3.10;1.92;;;;;;;;;;4999815;28;20543;-73
2020/12/27 13:12:44;;;;;;;5.40;2.53;;;;;;;;;;4999549;28;20029;-75
2020/12/27 13:15:10;;;;;;;4.95;2.95;;;;;;;;;;4998229;28;21421;-74
2020/12/27 13:17:36;;;;;;;4.55;2.15;;;;;;;;;;4994718;28;20010;-74
2020/12/27 13:20:04;;;;;;;4.32;2.00;;;;;;;;;;4997325;28;20044;-74
2020/12/27 13:22:30;;;;;;;2.90;2.05;;;;;;;;;;4999194;28;20039;-74
2020/12/27 13:24:56;;;;;;;4.30;2.10;;;;;;;;;;4991481;28;20042;-74
2020/12/27 13:27:22;;;;;;;5.18;2.30;;;;;;;;;;4990452;28;20030;-73
2020/12/27 13:29:48;;;;;;;2.33;2.10;;;;;;;;;;5004238;28;20096;-74
2020/12/27 13:32:14;;;;;;;5.20;2.63;;;;;;;;;;4991992;28;20030;-74
2020/12/27 13:34:40;;;;;;;3.83;2.72;;;;;;;;;;5009740;28;20146;-73
2020/12/27 13:37:06;;;;;;;4.47;2.10;;;;;;;;;;5009376;28;20026;-72
2020/12/27 13:39:32;;;;;;;3.58;2.17;;;;;;;;;;5009607;28;20037;-73
2020/12/27 13:41:59;;;;;;;3.83;2.33;;;;;;;;;;5009671;28;20037;-73
2020/12/27 13:44:25;;;;;;;4.10;2.33;;;;;;;;;;4996355;28;20453;-73
2020/12/27 13:46:51;;;;;;;15.30;5.97;;;;;;;;;;4991942;28;20022;-72
2020/12/27 13:49:17;;;;;;;6.43;2.78;;;;;;;;;;4993630;28;20046;-72
2020/12/27 13:51:45;;;;;;;4.15;2.22;;;;;;;;;;4993590;28;20018;-72
2020/12/27 13:54:11;;;;;;;5.47;3.13;;;;;;;;;;4993527;28;20402;-72
2020/12/27 13:56:37;;;;;;;5.50;2.47;;;;;;;;;;4993309;28;20097;-72
2020/12/27 13:59:03;;;;;;;4.32;2.40;;;;;;;;;;4993208;28;20503;-73
2020/12/27 14:01:29;;;;;;;4.13;2.47;;;;;;;;;;4993401;28;20402;-72
2020/12/27 14:03:55;;;;;;;4.20;2.58;;;;;;;;;;4993453;28;20119;-73
2020/12/27 14:06:27;;;;;;;5.93;2.70;;;;;;;;;;4993549;28;20463;-72
2020/12/27 14:08:54;;;;;;;3.88;2.50;;;;;;;;;;4975690;28;20417;-72
2020/12/27 14:11:20;;;;;;;4.28;2.38;;;;;;;;;;4993538;28;20033;-73
2020/12/27 14:13:46;;;;;;;3.70;2.20;;;;;;;;;;4993282;28;20049;-73
2020/12/27 14:16:13;;;;;;;5.40;2.70;;;;;;;;;;4992999;28;20026;-72
2020/12/27 14:18:39;;;;;;;5.53;2.35;;;;;;;;;;4993078;28;20109;-73
2020/12/27 14:21:05;;;;;;;2.85;2.30;;;;;;;;;;4992933;28;20026;-73
2020/12/27 14:23:31;;;;;;;2.05;1.85;;;;;;;;;;4993118;28;20460;-73
2020/12/27 14:25:57;;;;;;;3.75;2.13;;;;;;;;;;4993214;28;20513;-73
2020/12/27 14:28:23;;;;;;;5.03;2.58;;;;;;;;;;4992960;28;20042;-73
2020/12/27 14:30:49;;;;;;;4.30;2.58;;;;;;;;;;4993273;28;20382;-74
2020/12/27 14:33:15;;;;;;;3.47;1.63;;;;;;;;;;4992733;28;20046;-73
2020/12/27 14:35:42;;;;;;;1.90;1.50;;;;;;;;;;4992874;28;20034;-73
2020/12/27 14:38:08;;;;;;;6.05;3.10;;;;;;;;;;4992820;28;20553;-73
2020/12/27 14:40:35;;;;;;;2.92;1.90;;;;;;;;;;4992862;28;20030;-74
2020/12/27 14:43:01;;;;;;;3.35;1.85;;;;;;;;;;4993885;28;20031;-73
2020/12/27 14:45:27;;;;;;;2.90;2.10;;;;;;;;;;5012239;28;20026;-73